sensor_id;sensor_type;location;lat;lon;timestamp;P1;durP1;ratioP1;P2;durP2;ratioP2
38455;SDS011;24237;50.106;20.014;2024-01-06T00:01:02;71.53;;;31.88;;
38455;SDS011;24237;50.106;20.014;2024-01-06T00:03:27;75.25;;;33.15;;
38455;SDS011;24237;50.106;20.014;2024-01-06T00:05:53;72.18;;;30.63;;
38455;SDS011;24237;50.106;20.014;2024-01-06T00:08:19;77.82;;;32.90;;
38455;SDS011;24237;50.106;20.014;2024-01-06T00:10:44;75.22;;;32.53;;
38455;SDS011;24237;50.106;20.014;2024-01-06T00:13:31;77.65;;;33.63;;
38455;SDS011;24237;50.106;20.014;2024-01-06T00:15:57;73.97;;;32.80;;
38455;SDS011;24237;50.106;20.014;2024-01-06T00:18:23;82.90;;;34.38;;
38455;SDS011;24237;50.106;20.014;2024-01-06T00:20:49;76.20;;;33.17;;
38455;SDS011;24237;50.106;20.014;2024-01-06T00:23:14;70.78;;;33.50;;
38455;SDS011;24237;50.106;20.014;2024-01-06T00:25:40;76.35;;;34.67;;
38455;SDS011;24237;50.106;20.014;2024-01-06T00:28:06;70.18;;;33.55;;
38455;SDS011;24237;50.106;20.014;2024-01-06T00:30:31;74.00;;;33.83;;
38455;SDS011;24237;50.106;20.014;2024-01-06T00:32:57;81.07;;;36.28;;
38455;SDS011;24237;50.106;20.014;2024-01-06T00:35:23;79.68;;;35.38;;
38455;SDS011;24237;50.106;20.014;2024-01-06T00:37:48;79.95;;;37.03;;
38455;SDS011;24237;50.106;20.014;2024-01-06T00:40:14;91.30;;;39.47;;
38455;SDS011;24237;50.106;20.014;2024-01-06T00:42:40;79.47;;;35.90;;
38455;SDS011;24237;50.106;20.014;2024-01-06T00:45:06;83.78;;;37.50;;
38455;SDS011;24237;50.106;20.014;2024-01-06T00:47:32;91.38;;;41.00;;
38455;SDS011;24237;50.106;20.014;2024-01-06T00:49:58;77.53;;;34.92;;
38455;SDS011;24237;50.106;20.014;2024-01-06T00:52:23;81.32;;;36.25;;
38455;SDS011;24237;50.106;20.014;2024-01-06T00:54:49;100.70;;;41.33;;
38455;SDS011;24237;50.106;20.014;2024-01-06T00:57:15;89.00;;;39.42;;
38455;SDS011;24237;50.106;20.014;2024-01-06T00:59:40;86.03;;;38.78;;
38455;SDS011;24237;50.106;20.014;2024-01-06T01:02:06;91.72;;;38.25;;
38455;SDS011;24237;50.106;20.014;2024-01-06T01:04:32;85.20;;;38.28;;
38455;SDS011;24237;50.106;20.014;2024-01-06T01:06:58;86.22;;;37.22;;
38455;SDS011;24237;50.106;20.014;2024-01-06T01:09:23;98.32;;;41.30;;
38455;SDS011;24237;50.106;20.014;2024-01-06T01:11:49;94.40;;;41.47;;
38455;SDS011;24237;50.106;20.014;2024-01-06T01:14:15;92.10;;;39.88;;
38455;SDS011;24237;50.106;20.014;2024-01-06T01:16:43;92.38;;;40.40;;
38455;SDS011;24237;50.106;20.014;2024-01-06T01:19:09;106.38;;;41.53;;
38455;SDS011;24237;50.106;20.014;2024-01-06T01:21:34;96.20;;;44.92;;
38455;SDS011;24237;50.106;20.014;2024-01-06T01:24:00;104.20;;;42.00;;
38455;SDS011;24237;50.106;20.014;2024-01-06T01:26:26;105.55;;;43.92;;
38455;SDS011;24237;50.106;20.014;2024-01-06T01:28:51;100.38;;;44.55;;
38455;SDS011;24237;50.106;20.014;2024-01-06T01:31:17;107.70;;;43.47;;
38455;SDS011;24237;50.106;20.014;2024-01-06T01:33:43;102.57;;;45.08;;
38455;SDS011;24237;50.106;20.014;2024-01-06T01:36:08;109.38;;;44.60;;
38455;SDS011;24237;50.106;20.014;2024-01-06T01:38:34;99.72;;;44.47;;
38455;SDS011;24237;50.106;20.014;2024-01-06T01:40:59;108.95;;;44.03;;
38455;SDS011;24237;50.106;20.014;2024-01-06T01:43:25;101.22;;;43.30;;
38455;SDS011;24237;50.106;20.014;2024-01-06T01:45:53;98.90;;;42.67;;
38455;SDS011;24237;50.106;20.014;2024-01-06T01:48:22;97.20;;;44.20;;
38455;SDS011;24237;50.106;20.014;2024-01-06T01:50:49;113.13;;;46.58;;
38455;SDS011;24237;50.106;20.014;2024-01-06T01:53:15;105.80;;;45.60;;
38455;SDS011;24237;50.106;20.014;2024-01-06T01:55:41;108.00;;;45.78;;
38455;SDS011;24237;50.106;20.014;2024-01-06T01:58:09;100.65;;;44.63;;
38455;SDS011;24237;50.106;20.014;2024-01-06T02:00:37;101.88;;;43.65;;
38455;SDS011;24237;50.106;20.014;2024-01-06T02:03:03;95.78;;;41.83;;
38455;SDS011;24237;50.106;20.014;2024-01-06T02:05:30;104.47;;;45.45;;
38455;SDS011;24237;50.106;20.014;2024-01-06T02:07:56;106.70;;;45.85;;
38455;SDS011;24237;50.106;20.014;2024-01-06T02:10:21;105.03;;;45.42;;
38455;SDS011;24237;50.106;20.014;2024-01-06T02:12:48;103.85;;;47.58;;
38455;SDS011;24237;50.106;20.014;2024-01-06T02:15:16;105.53;;;44.72;;
38455;SDS011;24237;50.106;20.014;2024-01-06T02:17:42;108.32;;;46.45;;
38455;SDS011;24237;50.106;20.014;2024-01-06T02:20:08;105.28;;;44.78;;
38455;SDS011;24237;50.106;20.014;2024-01-06T02:22:35;97.70;;;43.88;;
38455;SDS011;24237;50.106;20.014;2024-01-06T02:25:02;89.43;;;41.70;;
38455;SDS011;24237;50.106;20.014;2024-01-06T02:27:37;101.88;;;43.60;;
38455;SDS011;24237;50.106;20.014;2024-01-06T02:30:03;97.78;;;40.70;;
38455;SDS011;24237;50.106;20.014;2024-01-06T02:32:30;90.20;;;41.30;;
38455;SDS011;24237;50.106;20.014;2024-01-06T02:34:56;91.25;;;38.92;;
38455;SDS011;24237;50.106;20.014;2024-01-06T02:37:22;97.72;;;41.55;;
38455;SDS011;24237;50.106;20.014;2024-01-06T02:39:47;88.65;;;39.92;;
38455;SDS011;24237;50.106;20.014;2024-01-06T02:42:13;86.70;;;39.30;;
38455;SDS011;24237;50.106;20.014;2024-01-06T02:44:39;80.30;;;37.72;;
38455;SDS011;24237;50.106;20.014;2024-01-06T02:47:04;83.78;;;39.55;;
38455;SDS011;24237;50.106;20.014;2024-01-06T02:49:30;88.80;;;37.63;;
38455;SDS011;24237;50.106;20.014;2024-01-06T02:51:56;82.13;;;37.15;;
38455;SDS011;24237;50.106;20.014;2024-01-06T02:54:21;74.90;;;35.80;;
38455;SDS011;24237;50.106;20.014;2024-01-06T02:56:47;75.72;;;35.05;;
38455;SDS011;24237;50.106;20.014;2024-01-06T02:59:13;76.03;;;36.15;;
38455;SDS011;24237;50.106;20.014;2024-01-06T03:01:38;84.18;;;37.65;;
38455;SDS011;24237;50.106;20.014;2024-01-06T03:04:04;80.55;;;37.33;;
38455;SDS011;24237;50.106;20.014;2024-01-06T03:06:30;82.38;;;37.10;;
38455;SDS011;24237;50.106;20.014;2024-01-06T03:08:55;78.32;;;36.25;;
38455;SDS011;24237;50.106;20.014;2024-01-06T03:11:22;82.75;;;38.35;;
38455;SDS011;24237;50.106;20.014;2024-01-06T03:13:47;81.32;;;37.95;;
38455;SDS011;24237;50.106;20.014;2024-01-06T03:16:13;74.18;;;37.42;;
38455;SDS011;24237;50.106;20.014;2024-01-06T03:18:39;80.18;;;36.97;;
38455;SDS011;24237;50.106;20.014;2024-01-06T03:21:04;85.47;;;36.58;;
38455;SDS011;24237;50.106;20.014;2024-01-06T03:23:30;78.75;;;35.83;;
38455;SDS011;24237;50.106;20.014;2024-01-06T03:25:56;83.40;;;37.25;;
38455;SDS011;24237;50.106;20.014;2024-01-06T03:28:21;81.55;;;35.30;;
38455;SDS011;24237;50.106;20.014;2024-01-06T03:30:47;82.22;;;34.85;;
38455;SDS011;24237;50.106;20.014;2024-01-06T03:33:13;79.32;;;37.13;;
38455;SDS011;24237;50.106;20.014;2024-01-06T03:35:39;76.88;;;35.22;;
38455;SDS011;24237;50.106;20.014;2024-01-06T03:38:04;72.38;;;33.47;;
38455;SDS011;24237;50.106;20.014;2024-01-06T03:40:30;76.07;;;36.33;;
38455;SDS011;24237;50.106;20.014;2024-01-06T03:42:56;76.75;;;36.08;;
38455;SDS011;24237;50.106;20.014;2024-01-06T03:45:21;75.95;;;36.45;;
38455;SDS011;24237;50.106;20.014;2024-01-06T03:47:47;72.78;;;35.38;;
38455;SDS011;24237;50.106;20.014;2024-01-06T03:50:13;71.15;;;34.33;;
38455;SDS011;24237;50.106;20.014;2024-01-06T03:52:38;78.65;;;35.28;;
38455;SDS011;24237;50.106;20.014;2024-01-06T03:55:05;75.03;;;36.08;;
38455;SDS011;24237;50.106;20.014;2024-01-06T03:57:31;81.70;;;35.27;;
38455;SDS011;24237;50.106;20.014;2024-01-06T03:59:57;71.43;;;34.75;;
38455;SDS011;24237;50.106;20.014;2024-01-06T04:02:23;80.35;;;35.13;;
38455;SDS011;24237;50.106;20.014;2024-01-06T04:04:49;75.35;;;33.22;;
38455;SDS011;24237;50.106;20.014;2024-01-06T04:07:14;70.57;;;32.40;;
38455;SDS011;24237;50.106;20.014;2024-01-06T04:09:43;74.18;;;31.65;;
38455;SDS011;24237;50.106;20.014;2024-01-06T04:12:09;69.65;;;31.88;;
38455;SDS011;24237;50.106;20.014;2024-01-06T04:14:34;63.60;;;31.50;;
38455;SDS011;24237;50.106;20.014;2024-01-06T04:17:00;65.53;;;31.20;;
38455;SDS011;24237;50.106;20.014;2024-01-06T04:19:26;68.20;;;31.00;;
38455;SDS011;24237;50.106;20.014;2024-01-06T04:21:51;68.25;;;32.55;;
38455;SDS011;24237;50.106;20.014;2024-01-06T04:24:17;70.38;;;30.77;;
38455;SDS011;24237;50.106;20.014;2024-01-06T04:26:43;62.55;;;30.38;;
38455;SDS011;24237;50.106;20.014;2024-01-06T04:29:10;68.68;;;31.42;;
38455;SDS011;24237;50.106;20.014;2024-01-06T04:31:37;61.28;;;30.95;;
38455;SDS011;24237;50.106;20.014;2024-01-06T04:34:02;71.28;;;30.15;;
38455;SDS011;24237;50.106;20.014;2024-01-06T04:36:28;65.70;;;29.17;;
38455;SDS011;24237;50.106;20.014;2024-01-06T04:38:54;62.65;;;29.30;;
38455;SDS011;24237;50.106;20.014;2024-01-06T04:41:20;64.32;;;28.77;;
38455;SDS011;24237;50.106;20.014;2024-01-06T04:43:46;67.85;;;31.00;;
38455;SDS011;24237;50.106;20.014;2024-01-06T04:46:12;60.38;;;28.33;;
38455;SDS011;24237;50.106;20.014;2024-01-06T04:48:39;63.97;;;29.05;;
38455;SDS011;24237;50.106;20.014;2024-01-06T04:51:06;62.15;;;28.80;;
38455;SDS011;24237;50.106;20.014;2024-01-06T04:53:35;68.05;;;29.25;;
38455;SDS011;24237;50.106;20.014;2024-01-06T04:56:01;57.67;;;29.40;;
38455;SDS011;24237;50.106;20.014;2024-01-06T04:58:27;66.53;;;28.25;;
38455;SDS011;24237;50.106;20.014;2024-01-06T05:00:52;52.58;;;27.08;;
38455;SDS011;24237;50.106;20.014;2024-01-06T05:03:18;57.60;;;28.58;;
38455;SDS011;24237;50.106;20.014;2024-01-06T05:05:44;54.03;;;28.02;;
38455;SDS011;24237;50.106;20.014;2024-01-06T05:08:10;62.10;;;29.38;;
38455;SDS011;24237;50.106;20.014;2024-01-06T05:10:35;61.75;;;27.52;;
38455;SDS011;24237;50.106;20.014;2024-01-06T05:13:01;60.35;;;28.95;;
38455;SDS011;24237;50.106;20.014;2024-01-06T05:15:27;61.33;;;27.83;;
38455;SDS011;24237;50.106;20.014;2024-01-06T05:17:52;59.95;;;28.67;;
38455;SDS011;24237;50.106;20.014;2024-01-06T05:20:18;56.55;;;26.63;;
38455;SDS011;24237;50.106;20.014;2024-01-06T05:22:44;55.88;;;26.83;;
38455;SDS011;24237;50.106;20.014;2024-01-06T05:25:09;54.38;;;27.45;;
38455;SDS011;24237;50.106;20.014;2024-01-06T05:27:35;61.28;;;27.48;;
38455;SDS011;24237;50.106;20.014;2024-01-06T05:30:01;60.95;;;27.38;;
38455;SDS011;24237;50.106;20.014;2024-01-06T05:32:27;55.40;;;25.85;;
38455;SDS011;24237;50.106;20.014;2024-01-06T05:34:53;61.53;;;27.65;;
38455;SDS011;24237;50.106;20.014;2024-01-06T05:37:18;53.40;;;26.25;;
38455;SDS011;24237;50.106;20.014;2024-01-06T05:39:44;58.67;;;28.30;;
38455;SDS011;24237;50.106;20.014;2024-01-06T05:42:10;55.85;;;27.55;;
38455;SDS011;24237;50.106;20.014;2024-01-06T05:44:40;59.08;;;28.05;;
38455;SDS011;24237;50.106;20.014;2024-01-06T05:47:06;57.85;;;27.52;;
38455;SDS011;24237;50.106;20.014;2024-01-06T05:49:33;50.65;;;25.98;;
38455;SDS011;24237;50.106;20.014;2024-01-06T05:51:59;54.92;;;26.20;;
38455;SDS011;24237;50.106;20.014;2024-01-06T05:54:25;54.38;;;27.73;;
38455;SDS011;24237;50.106;20.014;2024-01-06T05:56:51;59.55;;;27.10;;
38455;SDS011;24237;50.106;20.014;2024-01-06T05:59:16;58.47;;;27.73;;
38455;SDS011;24237;50.106;20.014;2024-01-06T06:01:42;57.92;;;28.02;;
38455;SDS011;24237;50.106;20.014;2024-01-06T06:04:10;56.70;;;26.77;;
38455;SDS011;24237;50.106;20.014;2024-01-06T06:06:36;60.30;;;28.45;;
38455;SDS011;24237;50.106;20.014;2024-01-06T06:09:02;58.70;;;27.73;;
38455;SDS011;24237;50.106;20.014;2024-01-06T06:11:31;63.72;;;28.95;;
38455;SDS011;24237;50.106;20.014;2024-01-06T06:13:58;61.75;;;29.38;;
38455;SDS011;24237;50.106;20.014;2024-01-06T06:16:23;65.90;;;28.10;;
38455;SDS011;24237;50.106;20.014;2024-01-06T06:18:49;53.63;;;27.17;;
38455;SDS011;24237;50.106;20.014;2024-01-06T06:21:15;61.50;;;27.33;;
38455;SDS011;24237;50.106;20.014;2024-01-06T06:23:41;63.35;;;27.95;;
38455;SDS011;24237;50.106;20.014;2024-01-06T06:26:07;58.85;;;29.05;;
38455;SDS011;24237;50.106;20.014;2024-01-06T06:28:33;62.28;;;29.17;;
38455;SDS011;24237;50.106;20.014;2024-01-06T06:31:00;56.70;;;28.63;;
38455;SDS011;24237;50.106;20.014;2024-01-06T06:33:26;54.92;;;27.88;;
38455;SDS011;24237;50.106;20.014;2024-01-06T06:35:52;54.10;;;27.42;;
38455;SDS011;24237;50.106;20.014;2024-01-06T06:38:18;55.85;;;27.08;;
38455;SDS011;24237;50.106;20.014;2024-01-06T06:40:43;52.60;;;26.67;;
38455;SDS011;24237;50.106;20.014;2024-01-06T06:43:09;51.35;;;25.73;;
38455;SDS011;24237;50.106;20.014;2024-01-06T06:45:35;51.00;;;26.15;;
38455;SDS011;24237;50.106;20.014;2024-01-06T06:48:01;56.97;;;27.90;;
38455;SDS011;24237;50.106;20.014;2024-01-06T06:50:27;56.90;;;27.98;;
38455;SDS011;24237;50.106;20.014;2024-01-06T06:52:52;56.75;;;26.73;;
38455;SDS011;24237;50.106;20.014;2024-01-06T06:55:18;57.58;;;27.25;;
38455;SDS011;24237;50.106;20.014;2024-01-06T06:57:44;58.55;;;25.63;;
38455;SDS011;24237;50.106;20.014;2024-01-06T07:00:10;58.13;;;27.60;;
38455;SDS011;24237;50.106;20.014;2024-01-06T07:02:36;57.00;;;27.63;;
38455;SDS011;24237;50.106;20.014;2024-01-06T07:05:03;54.22;;;25.38;;
38455;SDS011;24237;50.106;20.014;2024-01-06T07:07:31;55.08;;;26.02;;
38455;SDS011;24237;50.106;20.014;2024-01-06T07:10:03;57.78;;;27.02;;
38455;SDS011;24237;50.106;20.014;2024-01-06T07:12:30;54.00;;;26.50;;
38455;SDS011;24237;50.106;20.014;2024-01-06T07:14:56;50.83;;;25.92;;
38455;SDS011;24237;50.106;20.014;2024-01-06T07:17:24;54.15;;;26.10;;
38455;SDS011;24237;50.106;20.014;2024-01-06T07:19:50;54.35;;;27.08;;
38455;SDS011;24237;50.106;20.014;2024-01-06T07:22:15;57.97;;;26.48;;
38455;SDS011;24237;50.106;20.014;2024-01-06T07:24:44;50.67;;;26.25;;
38455;SDS011;24237;50.106;20.014;2024-01-06T07:27:10;49.58;;;23.92;;
38455;SDS011;24237;50.106;20.014;2024-01-06T07:29:36;51.92;;;25.45;;
38455;SDS011;24237;50.106;20.014;2024-01-06T07:32:02;53.40;;;25.02;;
38455;SDS011;24237;50.106;20.014;2024-01-06T07:34:28;49.33;;;24.38;;
38455;SDS011;24237;50.106;20.014;2024-01-06T07:36:54;52.60;;;24.88;;
38455;SDS011;24237;50.106;20.014;2024-01-06T07:39:20;47.35;;;25.15;;
38455;SDS011;24237;50.106;20.014;2024-01-06T07:41:45;49.10;;;24.05;;
38455;SDS011;24237;50.106;20.014;2024-01-06T07:44:14;50.20;;;25.35;;
38455;SDS011;24237;50.106;20.014;2024-01-06T07:46:41;47.60;;;24.60;;
38455;SDS011;24237;50.106;20.014;2024-01-06T07:49:07;51.10;;;24.10;;
38455;SDS011;24237;50.106;20.014;2024-01-06T07:51:33;51.35;;;25.13;;
38455;SDS011;24237;50.106;20.014;2024-01-06T07:54:00;53.35;;;26.52;;
38455;SDS011;24237;50.106;20.014;2024-01-06T07:56:26;52.92;;;25.00;;
38455;SDS011;24237;50.106;20.014;2024-01-06T07:58:52;51.78;;;24.50;;
38455;SDS011;24237;50.106;20.014;2024-01-06T08:01:18;49.17;;;26.35;;
38455;SDS011;24237;50.106;20.014;2024-01-06T08:03:43;58.30;;;28.85;;
38455;SDS011;24237;50.106;20.014;2024-01-06T08:06:09;57.45;;;27.48;;
38455;SDS011;24237;50.106;20.014;2024-01-06T08:08:35;57.53;;;27.35;;
38455;SDS011;24237;50.106;20.014;2024-01-06T08:11:01;54.88;;;25.13;;
38455;SDS011;24237;50.106;20.014;2024-01-06T08:13:26;47.95;;;25.08;;
38455;SDS011;24237;50.106;20.014;2024-01-06T08:15:52;54.00;;;26.67;;
38455;SDS011;24237;50.106;20.014;2024-01-06T08:18:18;53.08;;;26.25;;
38455;SDS011;24237;50.106;20.014;2024-01-06T08:20:44;50.90;;;25.45;;
38455;SDS011;24237;50.106;20.014;2024-01-06T08:23:10;53.83;;;25.67;;
38455;SDS011;24237;50.106;20.014;2024-01-06T08:25:36;49.85;;;24.70;;
38455;SDS011;24237;50.106;20.014;2024-01-06T08:28:01;51.45;;;26.08;;
38455;SDS011;24237;50.106;20.014;2024-01-06T08:30:27;51.67;;;25.85;;
38455;SDS011;24237;50.106;20.014;2024-01-06T08:32:53;48.13;;;25.60;;
38455;SDS011;24237;50.106;20.014;2024-01-06T08:35:18;55.75;;;27.58;;
38455;SDS011;24237;50.106;20.014;2024-01-06T08:37:44;54.80;;;27.65;;
38455;SDS011;24237;50.106;20.014;2024-01-06T08:40:10;56.25;;;27.65;;
38455;SDS011;24237;50.106;20.014;2024-01-06T08:42:37;54.47;;;26.80;;
38455;SDS011;24237;50.106;20.014;2024-01-06T08:45:03;57.08;;;28.38;;
38455;SDS011;24237;50.106;20.014;2024-01-06T08:47:30;58.70;;;28.38;;
38455;SDS011;24237;50.106;20.014;2024-01-06T08:49:56;52.03;;;25.42;;
38455;SDS011;24237;50.106;20.014;2024-01-06T08:52:21;59.13;;;28.77;;
38455;SDS011;24237;50.106;20.014;2024-01-06T08:54:47;55.25;;;26.80;;
38455;SDS011;24237;50.106;20.014;2024-01-06T08:57:14;55.25;;;28.08;;
38455;SDS011;24237;50.106;20.014;2024-01-06T08:59:40;59.25;;;28.25;;
38455;SDS011;24237;50.106;20.014;2024-01-06T09:02:06;60.00;;;28.73;;
38455;SDS011;24237;50.106;20.014;2024-01-06T09:04:32;61.35;;;27.77;;
38455;SDS011;24237;50.106;20.014;2024-01-06T09:06:58;54.67;;;27.00;;
38455;SDS011;24237;50.106;20.014;2024-01-06T09:09:24;54.72;;;28.70;;
38455;SDS011;24237;50.106;20.014;2024-01-06T09:11:49;55.03;;;27.75;;
38455;SDS011;24237;50.106;20.014;2024-01-06T09:14:16;60.85;;;28.70;;
38455;SDS011;24237;50.106;20.014;2024-01-06T09:16:43;57.08;;;28.73;;
38455;SDS011;24237;50.106;20.014;2024-01-06T09:19:08;57.92;;;28.67;;
38455;SDS011;24237;50.106;20.014;2024-01-06T09:21:34;61.85;;;29.17;;
38455;SDS011;24237;50.106;20.014;2024-01-06T09:24:01;64.63;;;30.08;;
38455;SDS011;24237;50.106;20.014;2024-01-06T09:26:31;60.25;;;27.33;;
38455;SDS011;24237;50.106;20.014;2024-01-06T09:29:00;60.92;;;29.25;;
38455;SDS011;24237;50.106;20.014;2024-01-06T09:33:54;59.10;;;28.40;;
38455;SDS011;24237;50.106;20.014;2024-01-06T09:36:19;61.67;;;28.85;;
38455;SDS011;24237;50.106;20.014;2024-01-06T09:38:45;59.95;;;30.27;;
38455;SDS011;24237;50.106;20.014;2024-01-06T09:41:11;60.90;;;29.38;;
38455;SDS011;24237;50.106;20.014;2024-01-06T09:43:37;61.65;;;29.90;;
38455;SDS011;24237;50.106;20.014;2024-01-06T09:46:10;57.88;;;28.45;;
38455;SDS011;24237;50.106;20.014;2024-01-06T09:48:41;57.30;;;29.05;;
38455;SDS011;24237;50.106;20.014;2024-01-06T09:51:09;57.72;;;28.10;;
38455;SDS011;24237;50.106;20.014;2024-01-06T09:53:36;58.97;;;28.92;;
38455;SDS011;24237;50.106;20.014;2024-01-06T09:56:14;59.90;;;30.00;;
38455;SDS011;24237;50.106;20.014;2024-01-06T09:58:43;53.47;;;27.20;;
38455;SDS011;24237;50.106;20.014;2024-01-06T10:01:10;60.23;;;28.97;;
38455;SDS011;24237;50.106;20.014;2024-01-06T10:03:37;52.72;;;27.05;;
38455;SDS011;24237;50.106;20.014;2024-01-06T10:06:03;62.35;;;29.23;;
38455;SDS011;24237;50.106;20.014;2024-01-06T10:08:30;62.13;;;30.05;;
38455;SDS011;24237;50.106;20.014;2024-01-06T10:10:58;61.70;;;27.70;;
38455;SDS011;24237;50.106;20.014;2024-01-06T10:13:24;56.08;;;28.35;;
38455;SDS011;24237;50.106;20.014;2024-01-06T10:15:50;55.97;;;27.25;;
38455;SDS011;24237;50.106;20.014;2024-01-06T10:18:16;58.33;;;29.13;;
38455;SDS011;24237;50.106;20.014;2024-01-06T10:20:43;55.50;;;27.38;;
38455;SDS011;24237;50.106;20.014;2024-01-06T10:23:10;57.70;;;29.52;;
38455;SDS011;24237;50.106;20.014;2024-01-06T10:25:36;57.03;;;27.45;;
38455;SDS011;24237;50.106;20.014;2024-01-06T10:28:01;58.03;;;29.42;;
38455;SDS011;24237;50.106;20.014;2024-01-06T10:30:28;60.50;;;29.58;;
38455;SDS011;24237;50.106;20.014;2024-01-06T10:32:53;61.58;;;31.55;;
38455;SDS011;24237;50.106;20.014;2024-01-06T10:35:19;70.40;;;31.42;;
38455;SDS011;24237;50.106;20.014;2024-01-06T10:37:45;66.05;;;30.83;;
38455;SDS011;24237;50.106;20.014;2024-01-06T10:40:12;52.08;;;28.40;;
38455;SDS011;24237;50.106;20.014;2024-01-06T10:42:42;63.78;;;29.65;;
38455;SDS011;24237;50.106;20.014;2024-01-06T10:45:12;61.60;;;29.63;;
38455;SDS011;24237;50.106;20.014;2024-01-06T10:47:41;66.03;;;29.52;;
38455;SDS011;24237;50.106;20.014;2024-01-06T10:50:08;64.40;;;28.58;;
38455;SDS011;24237;50.106;20.014;2024-01-06T10:52:34;57.78;;;28.25;;
38455;SDS011;24237;50.106;20.014;2024-01-06T10:55:02;53.45;;;28.05;;
38455;SDS011;24237;50.106;20.014;2024-01-06T10:57:28;53.63;;;28.60;;
38455;SDS011;24237;50.106;20.014;2024-01-06T10:59:57;63.03;;;28.23;;
38455;SDS011;24237;50.106;20.014;2024-01-06T11:02:24;61.95;;;29.33;;
38455;SDS011;24237;50.106;20.014;2024-01-06T11:04:50;66.88;;;29.98;;
38455;SDS011;24237;50.106;20.014;2024-01-06T11:07:18;60.65;;;29.80;;
38455;SDS011;24237;50.106;20.014;2024-01-06T11:10:02;62.10;;;29.95;;
38455;SDS011;24237;50.106;20.014;2024-01-06T11:12:33;60.95;;;29.90;;
38455;SDS011;24237;50.106;20.014;2024-01-06T11:14:59;63.95;;;30.67;;
38455;SDS011;24237;50.106;20.014;2024-01-06T11:20:23;57.20;;;28.73;;
38455;SDS011;24237;50.106;20.014;2024-01-06T11:22:51;57.70;;;28.50;;
38455;SDS011;24237;50.106;20.014;2024-01-06T11:25:19;53.58;;;28.63;;
38455;SDS011;24237;50.106;20.014;2024-01-06T11:27:46;60.72;;;30.75;;
38455;SDS011;24237;50.106;20.014;2024-01-06T11:32:50;51.95;;;25.98;;
38455;SDS011;24237;50.106;20.014;2024-01-06T11:35:18;54.45;;;26.60;;
38455;SDS011;24237;50.106;20.014;2024-01-06T11:42:56;63.70;;;29.65;;
38455;SDS011;24237;50.106;20.014;2024-01-06T11:45:23;51.70;;;27.55;;
38455;SDS011;24237;50.106;20.014;2024-01-06T11:47:50;52.22;;;26.95;;
38455;SDS011;24237;50.106;20.014;2024-01-06T11:50:30;56.70;;;26.50;;
38455;SDS011;24237;50.106;20.014;2024-01-06T11:52:57;51.28;;;26.98;;
38455;SDS011;24237;50.106;20.014;2024-01-06T11:55:24;51.28;;;25.50;;
38455;SDS011;24237;50.106;20.014;2024-01-06T11:57:53;53.35;;;27.52;;
38455;SDS011;24237;50.106;20.014;2024-01-06T12:00:23;53.10;;;27.70;;
38455;SDS011;24237;50.106;20.014;2024-01-06T12:02:48;53.70;;;24.83;;
38455;SDS011;24237;50.106;20.014;2024-01-06T12:05:15;50.25;;;24.98;;
38455;SDS011;24237;50.106;20.014;2024-01-06T12:07:43;52.90;;;25.63;;
38455;SDS011;24237;50.106;20.014;2024-01-06T12:10:19;53.53;;;24.83;;
38455;SDS011;24237;50.106;20.014;2024-01-06T12:13:07;53.20;;;24.92;;
38455;SDS011;24237;50.106;20.014;2024-01-06T12:15:35;55.10;;;25.60;;
38455;SDS011;24237;50.106;20.014;2024-01-06T12:18:04;55.10;;;27.88;;
38455;SDS011;24237;50.106;20.014;2024-01-06T12:20:30;52.33;;;25.02;;
38455;SDS011;24237;50.106;20.014;2024-01-06T12:22:56;49.25;;;26.13;;
38455;SDS011;24237;50.106;20.014;2024-01-06T12:25:22;55.22;;;27.35;;
38455;SDS011;24237;50.106;20.014;2024-01-06T12:27:49;55.55;;;25.67;;
38455;SDS011;24237;50.106;20.014;2024-01-06T12:30:15;51.33;;;26.90;;
38455;SDS011;24237;50.106;20.014;2024-01-06T12:32:46;50.92;;;26.70;;
38455;SDS011;24237;50.106;20.014;2024-01-06T12:35:14;50.40;;;25.05;;
38455;SDS011;24237;50.106;20.014;2024-01-06T12:37:41;47.30;;;26.10;;
38455;SDS011;24237;50.106;20.014;2024-01-06T12:40:08;49.80;;;25.73;;
38455;SDS011;24237;50.106;20.014;2024-01-06T12:42:35;53.60;;;28.60;;
38455;SDS011;24237;50.106;20.014;2024-01-06T12:45:01;49.55;;;24.23;;
38455;SDS011;24237;50.106;20.014;2024-01-06T12:47:27;56.55;;;26.27;;
38455;SDS011;24237;50.106;20.014;2024-01-06T12:49:53;50.97;;;26.10;;
38455;SDS011;24237;50.106;20.014;2024-01-06T12:52:19;44.22;;;23.55;;
38455;SDS011;24237;50.106;20.014;2024-01-06T12:54:44;45.35;;;24.30;;
38455;SDS011;24237;50.106;20.014;2024-01-06T12:57:10;56.25;;;26.63;;
38455;SDS011;24237;50.106;20.014;2024-01-06T12:59:36;55.65;;;26.52;;
38455;SDS011;24237;50.106;20.014;2024-01-06T13:02:02;50.75;;;25.92;;
38455;SDS011;24237;50.106;20.014;2024-01-06T13:04:28;52.25;;;26.35;;
38455;SDS011;24237;50.106;20.014;2024-01-06T13:06:53;51.33;;;25.98;;
38455;SDS011;24237;50.106;20.014;2024-01-06T13:09:19;52.42;;;26.15;;
38455;SDS011;24237;50.106;20.014;2024-01-06T13:11:48;47.72;;;25.63;;
38455;SDS011;24237;50.106;20.014;2024-01-06T13:14:15;51.33;;;26.33;;
38455;SDS011;24237;50.106;20.014;2024-01-06T13:16:41;50.05;;;25.02;;
38455;SDS011;24237;50.106;20.014;2024-01-06T13:19:07;49.83;;;23.73;;
38455;SDS011;24237;50.106;20.014;2024-01-06T13:21:32;48.60;;;22.67;;
38455;SDS011;24237;50.106;20.014;2024-01-06T13:24:00;42.63;;;22.67;;
38455;SDS011;24237;50.106;20.014;2024-01-06T13:26:27;39.72;;;20.73;;
38455;SDS011;24237;50.106;20.014;2024-01-06T13:28:53;36.95;;;19.33;;
38455;SDS011;24237;50.106;20.014;2024-01-06T13:31:19;42.75;;;20.50;;
38455;SDS011;24237;50.106;20.014;2024-01-06T13:33:45;37.72;;;19.73;;
38455;SDS011;24237;50.106;20.014;2024-01-06T13:36:11;36.22;;;19.02;;
38455;SDS011;24237;50.106;20.014;2024-01-06T13:38:37;34.25;;;19.55;;
38455;SDS011;24237;50.106;20.014;2024-01-06T13:41:03;38.42;;;18.95;;
38455;SDS011;24237;50.106;20.014;2024-01-06T13:43:30;39.00;;;18.23;;
38455;SDS011;24237;50.106;20.014;2024-01-06T13:45:57;36.90;;;19.90;;
38455;SDS011;24237;50.106;20.014;2024-01-06T13:48:23;35.17;;;19.15;;
38455;SDS011;24237;50.106;20.014;2024-01-06T13:50:48;40.33;;;20.13;;
38455;SDS011;24237;50.106;20.014;2024-01-06T13:53:14;33.13;;;17.85;;
38455;SDS011;24237;50.106;20.014;2024-01-06T13:55:40;33.42;;;18.45;;
38455;SDS011;24237;50.106;20.014;2024-01-06T13:58:06;34.00;;;17.25;;
38455;SDS011;24237;50.106;20.014;2024-01-06T14:00:34;36.75;;;18.40;;
38455;SDS011;24237;50.106;20.014;2024-01-06T14:03:01;36.50;;;19.20;;
38455;SDS011;24237;50.106;20.014;2024-01-06T14:05:27;37.65;;;18.73;;
38455;SDS011;24237;50.106;20.014;2024-01-06T14:07:53;34.58;;;18.55;;
38455;SDS011;24237;50.106;20.014;2024-01-06T14:10:19;35.13;;;18.60;;
38455;SDS011;24237;50.106;20.014;2024-01-06T14:12:45;35.53;;;17.85;;
38455;SDS011;24237;50.106;20.014;2024-01-06T14:15:10;35.30;;;18.70;;
38455;SDS011;24237;50.106;20.014;2024-01-06T14:17:37;33.13;;;18.40;;